MMTG/TGZ METAR and TAF weather

Enter ICAO airport designator
Station Type Date Time Source
MMTG METAR 2021/09/24 03:42 UTC NOAA

MMTG 240342Z 32009KT 8SM SCT070 SCT300 24/19 A3000 RMK 8/063 HZY LTGIC NE/SE/S


Station Type Date Time Source
MMTG Decoded METAR 2021/09/24 03:42 UTC NOAA

Tuxtla Gutierrez, Chis., Mexico (MMTG) 16-45N 093-07W
Sep 23, 2021 - 11:42 PM EDT / 2021.09.24 0342 UTC
Wind: from the NW (320 degrees) at 10 MPH (9 KT):0
Visibility: 8 mile(s):0
Sky conditions: partly cloudy
Weather: Lightning observed
Temperature: 75 F (24 C)
Dew Point: 66 F (19 C)
Relative Humidity: 73%
Pressure (altimeter): 30 in. Hg (1015 hPa)
ob: MMTG 240342Z 32009KT 8SM SCT070 SCT300 24/19 A3000 RMK 8/063 HZY LTGIC NE/SE/S
cycle: 3

Station Type Date Time Source
MMTG TAF 2021/09/24 06:12 UTC NOAA

TAF MMTG 240412Z 2406/2506 32005KT 6SM HZ SCT020 BKN070
TEMPO 2411/2415 3SM BR BKN010
FM241800 33010KT 6SM HZ BKN020 BKN090 BKN300
TEMPO 2421/2501 5SM TSRA BKN020CB

Example: see airport list